Impacts METAR Board
IDs:

KLAX - Los Angeles Intl, CA, US

Updated at: 1200 UTC 15 Dec 2018
Potential Impact None Slight Moderate High
Time 15/00Z 15/01Z 15/02Z 15/03Z 15/04Z 15/05Z 15/06Z 15/07Z 15/08Z 15/09Z 15/10Z 15/11Z 15/12Z
Temp65 63 63 61 60 61 62 61 61 60 57 56 53
Dewpt46 44 49 55 57 52 54 53 50 43 40 42 39
Altim30.11 30.12 30.12 30.13 30.13 30.12 30.12 30.12 30.11 30.10 30.09 30.10 30.07
VIS10 10 10 10 10 10 10 10 10 10 10 10 10
CIG180 150 200 200 130 130 130 130 200 200 -- -- --
CoverOVCBKNBKNBKNBKNBKNBKNBKNBKNBKNFEWFEWCLR
FltCatVFRVFRVFRVFRVFRVFRVFRVFRVFRVFRVFRVFRVFR
WX--------------------------
WDir32030031025025025032003400260070
WSpd3 5 7 8 6 4 7 0 4 3 4 0 4
WGst-- -- -- -- -- -- -- -- -- -- -- -- --
Raw hourly METARs
KLAX 142353Z 32003KT 10SM FEW150 BKN180 OVC250 18/08 A3011 RMK AO2 SLP195 T01830078 10194 20167 55006
KLAX 150053Z 30005KT 10SM BKN150 BKN200 17/07 A3012 RMK AO2 RAB2356E06 SLP196 P0000 T01720067
KLAX 150153Z 31007KT 10SM SCT150 BKN200 17/09 A3012 RMK AO2 SLP197 T01720094
KLAX 150253Z 25008KT 10SM SCT150 BKN200 16/13 A3013 RMK AO2 SLP201 60000 T01610128 53006
KLAX 150353Z 25006KT 10SM BKN130 BKN200 16/14 A3013 RMK AO2 SLP202 T01560139
KLAX 150453Z 25004KT 10SM BKN130 BKN200 16/11 A3012 RMK AO2 SLP198 T01610111
KLAX 150553Z 32007KT 10SM BKN130 BKN200 17/12 A3012 RMK AO2 SLP200 60000 T01670122 10189 20156 55001
KLAX 150653Z 00000KT 10SM BKN130 BKN200 16/12 A3012 RMK AO2 SLP197 T01610117
KLAX 150753Z 34004KT 10SM FEW150 BKN200 16/10 A3011 RMK AO2 SLP194 T01610100 401940133
KLAX 150853Z VRB03KT 10SM BKN200 16/06 A3010 RMK AO2 SLP190 T01560061 58009
KLAX 150953Z 26004KT 10SM FEW200 14/04 A3009 RMK AO2 SLP188 T01390044
KLAX 151053Z 00000KT 10SM FEW200 13/06 A3010 RMK AO2 SLP190 T01330056
KLAX 151153Z 07004KT 10SM CLR 12/04 A3007 RMK AO2 SLP181 T01170039 10167 20117 58010



Page loaded:  12:46 UTC  |   04:46 AM Pacific  |   05:46 AM Mountain  |   06:46 AM Central  |   07:46 AM Eastern

 

ADVISORIES

FORECASTS

FORECASTS

OBSERVATIONS

USER TOOLS

ABOUT US